sensor_id;sensor_type;location;lat;lon;timestamp;temperature;humidity
22071;DHT22;11200;51.488;6.668;2023-07-28T00:01:56;18.10;99.90
22071;DHT22;11200;51.488;6.668;2023-07-28T00:04:21;18.10;99.90
22071;DHT22;11200;51.488;6.668;2023-07-28T00:06:47;18.10;99.90
22071;DHT22;11200;51.488;6.668;2023-07-28T00:09:13;18.10;99.90
22071;DHT22;11200;51.488;6.668;2023-07-28T00:11:38;18.10;99.90
22071;DHT22;11200;51.488;6.668;2023-07-28T00:14:04;18.10;99.90
22071;DHT22;11200;51.488;6.668;2023-07-28T00:16:30;18.10;99.90
22071;DHT22;11200;51.488;6.668;2023-07-28T00:18:55;18.10;99.90
22071;DHT22;11200;51.488;6.668;2023-07-28T00:21:21;18.10;99.90
22071;DHT22;11200;51.488;6.668;2023-07-28T00:23:46;18.10;99.90
22071;DHT22;11200;51.488;6.668;2023-07-28T00:26:12;18.10;99.90
22071;DHT22;11200;51.488;6.668;2023-07-28T00:28:38;18.10;99.90
22071;DHT22;11200;51.488;6.668;2023-07-28T00:31:03;18.10;99.90
22071;DHT22;11200;51.488;6.668;2023-07-28T00:33:29;18.10;99.90
22071;DHT22;11200;51.488;6.668;2023-07-28T00:35:54;18.10;99.90
22071;DHT22;11200;51.488;6.668;2023-07-28T00:38:20;18.10;99.90
22071;DHT22;11200;51.488;6.668;2023-07-28T00:40:46;18.10;99.90
22071;DHT22;11200;51.488;6.668;2023-07-28T00:43:11;18.10;99.90
22071;DHT22;11200;51.488;6.668;2023-07-28T00:45:37;18.00;99.90
22071;DHT22;11200;51.488;6.668;2023-07-28T00:48:11;18.10;99.90
22071;DHT22;11200;51.488;6.668;2023-07-28T00:50:38;18.00;99.90
22071;DHT22;11200;51.488;6.668;2023-07-28T00:53:04;18.10;99.90
22071;DHT22;11200;51.488;6.668;2023-07-28T00:55:30;18.10;99.90
22071;DHT22;11200;51.488;6.668;2023-07-28T00:57:56;18.00;99.90
22071;DHT22;11200;51.488;6.668;2023-07-28T01:00:22;18.00;99.90
22071;DHT22;11200;51.488;6.668;2023-07-28T01:02:48;18.00;99.90
22071;DHT22;11200;51.488;6.668;2023-07-28T01:05:13;18.00;99.90
22071;DHT22;11200;51.488;6.668;2023-07-28T01:15:23;18.00;99.90
22071;DHT22;11200;51.488;6.668;2023-07-28T01:17:49;18.00;99.90
22071;DHT22;11200;51.488;6.668;2023-07-28T01:20:16;18.00;99.90
22071;DHT22;11200;51.488;6.668;2023-07-28T01:25:52;18.00;99.90
22071;DHT22;11200;51.488;6.668;2023-07-28T01:28:21;18.00;99.90
22071;DHT22;11200;51.488;6.668;2023-07-28T01:30:47;18.00;99.90
22071;DHT22;11200;51.488;6.668;2023-07-28T01:33:13;18.00;99.90
22071;DHT22;11200;51.488;6.668;2023-07-28T01:35:39;18.00;99.90
22071;DHT22;11200;51.488;6.668;2023-07-28T01:38:05;18.00;99.90
22071;DHT22;11200;51.488;6.668;2023-07-28T01:40:31;18.00;99.90
22071;DHT22;11200;51.488;6.668;2023-07-28T01:42:56;18.00;99.90
22071;DHT22;11200;51.488;6.668;2023-07-28T01:45:22;18.00;99.90
22071;DHT22;11200;51.488;6.668;2023-07-28T01:47:48;18.00;99.90
22071;DHT22;11200;51.488;6.668;2023-07-28T01:50:14;18.00;99.90
22071;DHT22;11200;51.488;6.668;2023-07-28T01:52:39;18.00;99.90
22071;DHT22;11200;51.488;6.668;2023-07-28T01:55:07;18.00;99.90
22071;DHT22;11200;51.488;6.668;2023-07-28T01:57:33;18.00;99.90
22071;DHT22;11200;51.488;6.668;2023-07-28T02:00:00;18.00;99.90
22071;DHT22;11200;51.488;6.668;2023-07-28T02:02:25;18.00;99.90
22071;DHT22;11200;51.488;6.668;2023-07-28T02:04:51;18.00;99.90
22071;DHT22;11200;51.488;6.668;2023-07-28T02:07:16;18.00;99.90
22071;DHT22;11200;51.488;6.668;2023-07-28T02:09:42;18.00;99.90
22071;DHT22;11200;51.488;6.668;2023-07-28T02:12:08;18.00;99.90
22071;DHT22;11200;51.488;6.668;2023-07-28T02:14:34;18.00;99.90
22071;DHT22;11200;51.488;6.668;2023-07-28T02:17:00;18.10;99.90
22071;DHT22;11200;51.488;6.668;2023-07-28T02:19:25;18.00;99.90
22071;DHT22;11200;51.488;6.668;2023-07-28T02:21:51;18.00;99.90
22071;DHT22;11200;51.488;6.668;2023-07-28T02:24:18;18.00;99.90
22071;DHT22;11200;51.488;6.668;2023-07-28T02:26:43;18.00;99.90
22071;DHT22;11200;51.488;6.668;2023-07-28T02:29:09;18.00;99.90
22071;DHT22;11200;51.488;6.668;2023-07-28T02:31:34;18.00;99.90
22071;DHT22;11200;51.488;6.668;2023-07-28T02:34:01;18.00;99.90
22071;DHT22;11200;51.488;6.668;2023-07-28T02:36:27;18.00;99.90
22071;DHT22;11200;51.488;6.668;2023-07-28T02:38:53;17.90;99.90
22071;DHT22;11200;51.488;6.668;2023-07-28T02:41:18;18.00;99.90
22071;DHT22;11200;51.488;6.668;2023-07-28T02:43:44;18.00;99.90
22071;DHT22;11200;51.488;6.668;2023-07-28T02:46:09;18.00;99.90
22071;DHT22;11200;51.488;6.668;2023-07-28T02:48:35;18.00;99.90
22071;DHT22;11200;51.488;6.668;2023-07-28T02:51:01;18.00;99.90
22071;DHT22;11200;51.488;6.668;2023-07-28T02:53:26;18.00;99.90
22071;DHT22;11200;51.488;6.668;2023-07-28T02:55:52;18.00;99.90
22071;DHT22;11200;51.488;6.668;2023-07-28T02:58:18;18.00;99.90
22071;DHT22;11200;51.488;6.668;2023-07-28T03:00:44;17.90;99.90
22071;DHT22;11200;51.488;6.668;2023-07-28T03:03:11;17.90;99.90
22071;DHT22;11200;51.488;6.668;2023-07-28T03:05:38;18.00;99.90
22071;DHT22;11200;51.488;6.668;2023-07-28T03:08:04;18.00;99.90
22071;DHT22;11200;51.488;6.668;2023-07-28T03:10:30;18.00;99.90
22071;DHT22;11200;51.488;6.668;2023-07-28T03:12:56;18.00;99.90
22071;DHT22;11200;51.488;6.668;2023-07-28T03:15:22;18.00;99.90
22071;DHT22;11200;51.488;6.668;2023-07-28T03:17:49;18.00;99.90
22071;DHT22;11200;51.488;6.668;2023-07-28T03:20:15;18.00;99.90
22071;DHT22;11200;51.488;6.668;2023-07-28T03:22:40;18.00;99.90
22071;DHT22;11200;51.488;6.668;2023-07-28T03:25:06;18.00;99.90
22071;DHT22;11200;51.488;6.668;2023-07-28T03:27:32;18.00;99.90
22071;DHT22;11200;51.488;6.668;2023-07-28T03:29:58;18.00;99.90
22071;DHT22;11200;51.488;6.668;2023-07-28T03:32:23;18.00;99.90
22071;DHT22;11200;51.488;6.668;2023-07-28T03:34:49;17.90;99.90
22071;DHT22;11200;51.488;6.668;2023-07-28T03:37:15;18.00;99.90
22071;DHT22;11200;51.488;6.668;2023-07-28T03:39:40;18.00;99.90
22071;DHT22;11200;51.488;6.668;2023-07-28T03:42:07;18.00;99.90
22071;DHT22;11200;51.488;6.668;2023-07-28T03:44:32;18.00;99.90
22071;DHT22;11200;51.488;6.668;2023-07-28T03:46:59;18.00;99.90
22071;DHT22;11200;51.488;6.668;2023-07-28T03:49:25;18.00;99.90
22071;DHT22;11200;51.488;6.668;2023-07-28T03:51:50;18.00;99.90
22071;DHT22;11200;51.488;6.668;2023-07-28T03:54:16;18.00;99.90
22071;DHT22;11200;51.488;6.668;2023-07-28T03:56:42;18.00;99.90
22071;DHT22;11200;51.488;6.668;2023-07-28T03:59:08;18.00;99.90
22071;DHT22;11200;51.488;6.668;2023-07-28T04:01:33;18.00;99.90
22071;DHT22;11200;51.488;6.668;2023-07-28T04:03:59;18.00;99.90
22071;DHT22;11200;51.488;6.668;2023-07-28T04:06:48;18.00;99.90
22071;DHT22;11200;51.488;6.668;2023-07-28T04:09:19;18.00;99.90
22071;DHT22;11200;51.488;6.668;2023-07-28T04:11:45;18.00;99.90
22071;DHT22;11200;51.488;6.668;2023-07-28T04:14:11;18.00;99.90
22071;DHT22;11200;51.488;6.668;2023-07-28T04:16:37;18.00;99.90
22071;DHT22;11200;51.488;6.668;2023-07-28T04:19:04;18.00;99.90
22071;DHT22;11200;51.488;6.668;2023-07-28T04:21:30;18.00;99.90
22071;DHT22;11200;51.488;6.668;2023-07-28T04:23:55;18.00;99.90
22071;DHT22;11200;51.488;6.668;2023-07-28T04:26:23;18.00;99.90
22071;DHT22;11200;51.488;6.668;2023-07-28T04:28:50;18.00;99.90
22071;DHT22;11200;51.488;6.668;2023-07-28T04:31:16;18.00;99.90
22071;DHT22;11200;51.488;6.668;2023-07-28T04:33:42;18.00;99.90
22071;DHT22;11200;51.488;6.668;2023-07-28T04:36:08;18.00;99.90
22071;DHT22;11200;51.488;6.668;2023-07-28T04:38:33;18.00;99.90
22071;DHT22;11200;51.488;6.668;2023-07-28T04:40:59;18.00;99.90
22071;DHT22;11200;51.488;6.668;2023-07-28T04:43:25;18.00;99.90
22071;DHT22;11200;51.488;6.668;2023-07-28T04:45:51;18.00;99.90
22071;DHT22;11200;51.488;6.668;2023-07-28T04:48:16;18.00;99.90
22071;DHT22;11200;51.488;6.668;2023-07-28T04:50:42;18.00;99.90
22071;DHT22;11200;51.488;6.668;2023-07-28T04:53:08;18.00;99.90
22071;DHT22;11200;51.488;6.668;2023-07-28T04:55:33;18.00;99.90
22071;DHT22;11200;51.488;6.668;2023-07-28T04:57:59;18.00;99.90
22071;DHT22;11200;51.488;6.668;2023-07-28T05:00:25;18.00;99.90
22071;DHT22;11200;51.488;6.668;2023-07-28T05:02:50;18.10;99.90
22071;DHT22;11200;51.488;6.668;2023-07-28T05:05:16;18.00;99.90
22071;DHT22;11200;51.488;6.668;2023-07-28T05:07:42;18.10;99.90
22071;DHT22;11200;51.488;6.668;2023-07-28T05:10:08;18.00;99.90
22071;DHT22;11200;51.488;6.668;2023-07-28T05:12:34;18.10;99.90
22071;DHT22;11200;51.488;6.668;2023-07-28T05:14:59;18.10;99.90
22071;DHT22;11200;51.488;6.668;2023-07-28T05:17:25;18.10;99.90
22071;DHT22;11200;51.488;6.668;2023-07-28T05:19:51;18.10;99.90
22071;DHT22;11200;51.488;6.668;2023-07-28T05:22:17;18.10;99.90
22071;DHT22;11200;51.488;6.668;2023-07-28T05:24:43;18.10;99.90
22071;DHT22;11200;51.488;6.668;2023-07-28T05:27:11;18.10;99.90
22071;DHT22;11200;51.488;6.668;2023-07-28T05:29:37;18.10;99.90
22071;DHT22;11200;51.488;6.668;2023-07-28T05:32:03;18.10;99.90
22071;DHT22;11200;51.488;6.668;2023-07-28T05:34:29;18.10;99.90
22071;DHT22;11200;51.488;6.668;2023-07-28T05:36:55;18.10;99.90
22071;DHT22;11200;51.488;6.668;2023-07-28T05:39:21;18.10;99.90
22071;DHT22;11200;51.488;6.668;2023-07-28T05:41:46;18.10;99.90
22071;DHT22;11200;51.488;6.668;2023-07-28T05:44:12;18.20;99.90
22071;DHT22;11200;51.488;6.668;2023-07-28T05:46:38;18.10;99.90
22071;DHT22;11200;51.488;6.668;2023-07-28T05:49:04;18.20;99.90
22071;DHT22;11200;51.488;6.668;2023-07-28T05:51:30;18.20;99.90
22071;DHT22;11200;51.488;6.668;2023-07-28T05:53:56;18.20;99.90
22071;DHT22;11200;51.488;6.668;2023-07-28T05:56:22;18.20;99.90
22071;DHT22;11200;51.488;6.668;2023-07-28T05:58:48;18.20;99.90
22071;DHT22;11200;51.488;6.668;2023-07-28T06:01:16;18.20;99.90
22071;DHT22;11200;51.488;6.668;2023-07-28T06:03:42;18.20;99.90
22071;DHT22;11200;51.488;6.668;2023-07-28T06:06:08;18.20;99.90
22071;DHT22;11200;51.488;6.668;2023-07-28T06:08:34;18.30;99.90
22071;DHT22;11200;51.488;6.668;2023-07-28T06:11:03;18.30;99.90
22071;DHT22;11200;51.488;6.668;2023-07-28T06:13:29;18.30;99.90
22071;DHT22;11200;51.488;6.668;2023-07-28T06:15:55;18.30;99.90
22071;DHT22;11200;51.488;6.668;2023-07-28T06:18:21;18.30;99.90
22071;DHT22;11200;51.488;6.668;2023-07-28T06:20:47;18.30;99.90
22071;DHT22;11200;51.488;6.668;2023-07-28T06:23:13;18.30;99.90
22071;DHT22;11200;51.488;6.668;2023-07-28T06:25:39;18.30;99.90
22071;DHT22;11200;51.488;6.668;2023-07-28T06:28:09;18.40;99.90
22071;DHT22;11200;51.488;6.668;2023-07-28T06:30:35;18.40;99.90
22071;DHT22;11200;51.488;6.668;2023-07-28T06:33:00;18.40;99.90
22071;DHT22;11200;51.488;6.668;2023-07-28T06:35:28;18.40;99.90
22071;DHT22;11200;51.488;6.668;2023-07-28T06:37:54;18.40;99.90
22071;DHT22;11200;51.488;6.668;2023-07-28T06:40:20;18.40;99.90
22071;DHT22;11200;51.488;6.668;2023-07-28T06:42:45;18.40;99.90
22071;DHT22;11200;51.488;6.668;2023-07-28T06:45:11;18.50;99.90
22071;DHT22;11200;51.488;6.668;2023-07-28T06:47:39;18.50;99.90
22071;DHT22;11200;51.488;6.668;2023-07-28T06:50:05;18.50;99.90
22071;DHT22;11200;51.488;6.668;2023-07-28T06:52:31;18.60;99.90
22071;DHT22;11200;51.488;6.668;2023-07-28T06:54:56;18.60;99.90
22071;DHT22;11200;51.488;6.668;2023-07-28T06:57:22;18.60;99.90
22071;DHT22;11200;51.488;6.668;2023-07-28T06:59:50;18.60;99.90
22071;DHT22;11200;51.488;6.668;2023-07-28T07:02:15;18.70;99.90
22071;DHT22;11200;51.488;6.668;2023-07-28T07:04:41;18.70;99.90
22071;DHT22;11200;51.488;6.668;2023-07-28T07:07:07;18.70;99.90
22071;DHT22;11200;51.488;6.668;2023-07-28T07:12:08;18.80;99.90
22071;DHT22;11200;51.488;6.668;2023-07-28T07:14:34;18.80;99.90
22071;DHT22;11200;51.488;6.668;2023-07-28T07:17:00;18.80;99.90
22071;DHT22;11200;51.488;6.668;2023-07-28T07:19:30;18.90;99.90
22071;DHT22;11200;51.488;6.668;2023-07-28T07:21:56;18.90;99.90
22071;DHT22;11200;51.488;6.668;2023-07-28T07:24:21;18.90;99.90
22071;DHT22;11200;51.488;6.668;2023-07-28T07:26:47;19.00;99.90
22071;DHT22;11200;51.488;6.668;2023-07-28T07:29:13;19.00;99.90
22071;DHT22;11200;51.488;6.668;2023-07-28T07:31:39;19.00;99.90
22071;DHT22;11200;51.488;6.668;2023-07-28T07:34:06;19.10;99.90
22071;DHT22;11200;51.488;6.668;2023-07-28T07:36:32;19.20;99.90
22071;DHT22;11200;51.488;6.668;2023-07-28T07:38:58;19.20;99.90
22071;DHT22;11200;51.488;6.668;2023-07-28T07:41:24;19.20;99.90
22071;DHT22;11200;51.488;6.668;2023-07-28T07:43:52;19.30;99.90
22071;DHT22;11200;51.488;6.668;2023-07-28T07:46:18;19.30;99.90
22071;DHT22;11200;51.488;6.668;2023-07-28T07:48:47;19.30;99.90
22071;DHT22;11200;51.488;6.668;2023-07-28T07:51:14;19.30;99.90
22071;DHT22;11200;51.488;6.668;2023-07-28T07:53:39;19.40;99.90
22071;DHT22;11200;51.488;6.668;2023-07-28T07:56:08;19.40;99.90
22071;DHT22;11200;51.488;6.668;2023-07-28T07:58:34;19.50;99.90
22071;DHT22;11200;51.488;6.668;2023-07-28T08:01:00;19.50;99.90
22071;DHT22;11200;51.488;6.668;2023-07-28T08:03:26;19.50;99.90
22071;DHT22;11200;51.488;6.668;2023-07-28T08:05:53;19.60;99.90
22071;DHT22;11200;51.488;6.668;2023-07-28T08:08:19;19.60;99.90
22071;DHT22;11200;51.488;6.668;2023-07-28T08:10:46;19.60;99.90
22071;DHT22;11200;51.488;6.668;2023-07-28T08:13:13;19.70;99.90
22071;DHT22;11200;51.488;6.668;2023-07-28T08:15:39;19.70;99.90
22071;DHT22;11200;51.488;6.668;2023-07-28T08:18:04;19.70;99.90
22071;DHT22;11200;51.488;6.668;2023-07-28T08:20:30;19.80;99.90
22071;DHT22;11200;51.488;6.668;2023-07-28T08:22:56;19.80;99.90
22071;DHT22;11200;51.488;6.668;2023-07-28T08:25:21;19.90;99.90
22071;DHT22;11200;51.488;6.668;2023-07-28T08:27:49;19.90;99.90
22071;DHT22;11200;51.488;6.668;2023-07-28T08:30:15;19.90;99.90
22071;DHT22;11200;51.488;6.668;2023-07-28T08:32:41;19.90;99.90
22071;DHT22;11200;51.488;6.668;2023-07-28T08:35:07;19.90;99.90
22071;DHT22;11200;51.488;6.668;2023-07-28T08:37:34;20.00;99.90
22071;DHT22;11200;51.488;6.668;2023-07-28T08:39:59;20.00;99.90
22071;DHT22;11200;51.488;6.668;2023-07-28T08:42:25;20.00;99.90
22071;DHT22;11200;51.488;6.668;2023-07-28T08:44:51;20.10;99.90
22071;DHT22;11200;51.488;6.668;2023-07-28T08:47:18;20.10;99.90
22071;DHT22;11200;51.488;6.668;2023-07-28T08:49:44;20.10;99.90
22071;DHT22;11200;51.488;6.668;2023-07-28T08:52:10;20.10;99.90
22071;DHT22;11200;51.488;6.668;2023-07-28T08:54:36;20.10;99.90
22071;DHT22;11200;51.488;6.668;2023-07-28T08:57:01;20.20;99.90
22071;DHT22;11200;51.488;6.668;2023-07-28T08:59:28;20.20;99.90
22071;DHT22;11200;51.488;6.668;2023-07-28T09:01:56;20.20;99.90
22071;DHT22;11200;51.488;6.668;2023-07-28T09:04:25;20.20;99.90
22071;DHT22;11200;51.488;6.668;2023-07-28T09:06:51;20.30;99.90
22071;DHT22;11200;51.488;6.668;2023-07-28T09:09:20;20.30;99.90
22071;DHT22;11200;51.488;6.668;2023-07-28T09:11:51;20.30;99.90
22071;DHT22;11200;51.488;6.668;2023-07-28T09:14:18;20.40;99.90
22071;DHT22;11200;51.488;6.668;2023-07-28T09:16:47;20.40;99.90
22071;DHT22;11200;51.488;6.668;2023-07-28T09:19:14;20.50;99.90
22071;DHT22;11200;51.488;6.668;2023-07-28T09:21:42;20.50;99.90
22071;DHT22;11200;51.488;6.668;2023-07-28T09:24:12;20.50;99.90
22071;DHT22;11200;51.488;6.668;2023-07-28T09:26:47;20.60;99.90
22071;DHT22;11200;51.488;6.668;2023-07-28T09:29:16;20.60;99.90
22071;DHT22;11200;51.488;6.668;2023-07-28T09:31:43;20.60;99.90
22071;DHT22;11200;51.488;6.668;2023-07-28T09:34:09;20.70;99.90
22071;DHT22;11200;51.488;6.668;2023-07-28T09:36:36;20.70;99.90
22071;DHT22;11200;51.488;6.668;2023-07-28T09:39:04;20.80;99.90
22071;DHT22;11200;51.488;6.668;2023-07-28T09:41:35;20.80;99.90
22071;DHT22;11200;51.488;6.668;2023-07-28T09:44:02;20.90;99.90
22071;DHT22;11200;51.488;6.668;2023-07-28T09:46:28;21.00;99.90
22071;DHT22;11200;51.488;6.668;2023-07-28T09:48:57;21.00;99.90
22071;DHT22;11200;51.488;6.668;2023-07-28T09:51:30;21.10;99.90
22071;DHT22;11200;51.488;6.668;2023-07-28T09:54:14;21.20;99.90
22071;DHT22;11200;51.488;6.668;2023-07-28T09:56:41;21.20;99.90
22071;DHT22;11200;51.488;6.668;2023-07-28T09:59:16;21.30;99.90
22071;DHT22;11200;51.488;6.668;2023-07-28T10:01:44;21.30;99.90
22071;DHT22;11200;51.488;6.668;2023-07-28T10:04:10;21.40;99.90
22071;DHT22;11200;51.488;6.668;2023-07-28T10:06:36;21.40;99.90
22071;DHT22;11200;51.488;6.668;2023-07-28T10:09:04;21.40;99.90
22071;DHT22;11200;51.488;6.668;2023-07-28T10:11:32;21.40;99.90
22071;DHT22;11200;51.488;6.668;2023-07-28T10:13:58;21.40;99.90
22071;DHT22;11200;51.488;6.668;2023-07-28T10:16:31;21.40;99.90
22071;DHT22;11200;51.488;6.668;2023-07-28T10:19:03;21.40;99.90
22071;DHT22;11200;51.488;6.668;2023-07-28T10:21:29;21.40;99.90
22071;DHT22;11200;51.488;6.668;2023-07-28T10:24:00;21.40;99.90
22071;DHT22;11200;51.488;6.668;2023-07-28T10:26:39;21.40;99.90
22071;DHT22;11200;51.488;6.668;2023-07-28T10:29:15;21.40;99.90
22071;DHT22;11200;51.488;6.668;2023-07-28T10:31:52;21.50;99.90
22071;DHT22;11200;51.488;6.668;2023-07-28T10:34:19;21.50;99.90
22071;DHT22;11200;51.488;6.668;2023-07-28T10:36:45;21.50;99.90
22071;DHT22;11200;51.488;6.668;2023-07-28T10:39:15;21.50;99.90
22071;DHT22;11200;51.488;6.668;2023-07-28T10:44:29;21.50;99.90
22071;DHT22;11200;51.488;6.668;2023-07-28T10:46:55;21.60;99.90
22071;DHT22;11200;51.488;6.668;2023-07-28T10:49:22;21.60;99.90
22071;DHT22;11200;51.488;6.668;2023-07-28T10:51:49;21.60;99.90
22071;DHT22;11200;51.488;6.668;2023-07-28T10:54:15;21.70;99.90
22071;DHT22;11200;51.488;6.668;2023-07-28T10:56:46;21.70;99.90
22071;DHT22;11200;51.488;6.668;2023-07-28T10:59:12;21.70;99.90
22071;DHT22;11200;51.488;6.668;2023-07-28T11:01:39;21.80;99.90
22071;DHT22;11200;51.488;6.668;2023-07-28T11:04:16;21.80;99.90
22071;DHT22;11200;51.488;6.668;2023-07-28T11:06:47;21.80;99.90
22071;DHT22;11200;51.488;6.668;2023-07-28T11:09:16;21.80;99.90
22071;DHT22;11200;51.488;6.668;2023-07-28T11:11:42;21.80;99.90
22071;DHT22;11200;51.488;6.668;2023-07-28T11:14:09;21.80;99.90
22071;DHT22;11200;51.488;6.668;2023-07-28T11:16:40;21.80;99.90
22071;DHT22;11200;51.488;6.668;2023-07-28T11:19:11;21.90;99.90
22071;DHT22;11200;51.488;6.668;2023-07-28T11:21:38;21.90;99.90
22071;DHT22;11200;51.488;6.668;2023-07-28T11:24:04;22.00;99.90
22071;DHT22;11200;51.488;6.668;2023-07-28T11:26:30;22.00;99.90
22071;DHT22;11200;51.488;6.668;2023-07-28T11:28:56;22.10;99.90
22071;DHT22;11200;51.488;6.668;2023-07-28T11:31:26;22.00;99.90
22071;DHT22;11200;51.488;6.668;2023-07-28T11:33:53;22.10;99.90
22071;DHT22;11200;51.488;6.668;2023-07-28T11:36:26;22.20;99.90
22071;DHT22;11200;51.488;6.668;2023-07-28T11:38:53;22.30;99.90
22071;DHT22;11200;51.488;6.668;2023-07-28T11:41:20;22.40;99.90
22071;DHT22;11200;51.488;6.668;2023-07-28T11:43:50;22.50;99.90
22071;DHT22;11200;51.488;6.668;2023-07-28T11:46:55;22.70;99.90
22071;DHT22;11200;51.488;6.668;2023-07-28T11:49:21;22.80;99.90
22071;DHT22;11200;51.488;6.668;2023-07-28T11:51:54;22.90;99.90
22071;DHT22;11200;51.488;6.668;2023-07-28T11:57:29;23.20;99.90
22071;DHT22;11200;51.488;6.668;2023-07-28T12:00:01;23.30;99.90
22071;DHT22;11200;51.488;6.668;2023-07-28T12:02:31;23.50;99.90
22071;DHT22;11200;51.488;6.668;2023-07-28T12:04:57;23.60;99.90
22071;DHT22;11200;51.488;6.668;2023-07-28T12:07:32;23.70;99.90
22071;DHT22;11200;51.488;6.668;2023-07-28T12:10:05;23.80;99.90
22071;DHT22;11200;51.488;6.668;2023-07-28T12:12:45;24.00;99.90
22071;DHT22;11200;51.488;6.668;2023-07-28T12:15:30;24.10;99.90
22071;DHT22;11200;51.488;6.668;2023-07-28T12:18:04;24.20;99.90
22071;DHT22;11200;51.488;6.668;2023-07-28T12:20:43;24.30;99.90
22071;DHT22;11200;51.488;6.668;2023-07-28T12:23:14;24.40;99.90
22071;DHT22;11200;51.488;6.668;2023-07-28T12:25:41;24.40;99.90
22071;DHT22;11200;51.488;6.668;2023-07-28T12:28:07;24.50;99.90
22071;DHT22;11200;51.488;6.668;2023-07-28T12:30:34;24.60;99.90
22071;DHT22;11200;51.488;6.668;2023-07-28T12:33:01;24.60;99.90
22071;DHT22;11200;51.488;6.668;2023-07-28T12:35:27;24.70;99.90
22071;DHT22;11200;51.488;6.668;2023-07-28T12:37:57;24.80;99.90
22071;DHT22;11200;51.488;6.668;2023-07-28T12:40:26;24.90;99.90
22071;DHT22;11200;51.488;6.668;2023-07-28T12:42:55;24.90;99.90
22071;DHT22;11200;51.488;6.668;2023-07-28T12:45:21;25.00;99.90
22071;DHT22;11200;51.488;6.668;2023-07-28T12:47:47;25.00;99.90
22071;DHT22;11200;51.488;6.668;2023-07-28T12:50:13;25.00;99.90
22071;DHT22;11200;51.488;6.668;2023-07-28T12:52:39;25.10;99.90
22071;DHT22;11200;51.488;6.668;2023-07-28T12:55:05;25.10;99.90
22071;DHT22;11200;51.488;6.668;2023-07-28T12:57:31;25.20;99.90
22071;DHT22;11200;51.488;6.668;2023-07-28T12:59:57;25.20;99.90
22071;DHT22;11200;51.488;6.668;2023-07-28T13:02:23;25.20;99.90
22071;DHT22;11200;51.488;6.668;2023-07-28T13:04:48;25.20;99.90
22071;DHT22;11200;51.488;6.668;2023-07-28T13:07:14;25.20;99.90
22071;DHT22;11200;51.488;6.668;2023-07-28T13:09:40;25.20;99.90
22071;DHT22;11200;51.488;6.668;2023-07-28T13:12:07;25.20;99.90
22071;DHT22;11200;51.488;6.668;2023-07-28T13:14:33;25.20;99.90
22071;DHT22;11200;51.488;6.668;2023-07-28T13:16:59;25.20;99.90
22071;DHT22;11200;51.488;6.668;2023-07-28T13:19:25;25.20;99.90
22071;DHT22;11200;51.488;6.668;2023-07-28T13:21:50;25.20;99.90
22071;DHT22;11200;51.488;6.668;2023-07-28T13:24:16;25.10;99.90
22071;DHT22;11200;51.488;6.668;2023-07-28T13:26:42;25.20;99.90
22071;DHT22;11200;51.488;6.668;2023-07-28T13:29:07;25.20;99.90
22071;DHT22;11200;51.488;6.668;2023-07-28T13:31:33;25.20;99.90
22071;DHT22;11200;51.488;6.668;2023-07-28T13:33:59;25.20;99.90
22071;DHT22;11200;51.488;6.668;2023-07-28T13:36:25;25.20;99.90
22071;DHT22;11200;51.488;6.668;2023-07-28T13:38:50;25.20;99.90
22071;DHT22;11200;51.488;6.668;2023-07-28T13:41:16;25.20;99.90
22071;DHT22;11200;51.488;6.668;2023-07-28T13:43:42;25.20;99.90
22071;DHT22;11200;51.488;6.668;2023-07-28T13:46:08;25.20;99.90
22071;DHT22;11200;51.488;6.668;2023-07-28T13:48:34;25.20;99.90
22071;DHT22;11200;51.488;6.668;2023-07-28T13:51:01;25.20;99.90
22071;DHT22;11200;51.488;6.668;2023-07-28T13:53:27;25.20;99.90
22071;DHT22;11200;51.488;6.668;2023-07-28T13:55:56;25.20;99.90
22071;DHT22;11200;51.488;6.668;2023-07-28T13:58:22;25.20;99.90
22071;DHT22;11200;51.488;6.668;2023-07-28T14:00:48;25.20;99.90
22071;DHT22;11200;51.488;6.668;2023-07-28T14:03:13;25.20;99.90
22071;DHT22;11200;51.488;6.668;2023-07-28T14:05:41;25.20;99.90
22071;DHT22;11200;51.488;6.668;2023-07-28T14:08:06;25.20;99.90
22071;DHT22;11200;51.488;6.668;2023-07-28T14:10:32;25.20;99.90
22071;DHT22;11200;51.488;6.668;2023-07-28T14:12:58;25.10;99.90
22071;DHT22;11200;51.488;6.668;2023-07-28T14:15:24;25.00;99.90
22071;DHT22;11200;51.488;6.668;2023-07-28T14:17:50;25.00;99.90
22071;DHT22;11200;51.488;6.668;2023-07-28T14:20:15;25.00;99.90
22071;DHT22;11200;51.488;6.668;2023-07-28T14:22:41;24.90;99.90
22071;DHT22;11200;51.488;6.668;2023-07-28T14:25:07;24.90;99.90
22071;DHT22;11200;51.488;6.668;2023-07-28T14:27:33;24.90;99.90
22071;DHT22;11200;51.488;6.668;2023-07-28T14:29:58;24.80;99.90
22071;DHT22;11200;51.488;6.668;2023-07-28T14:32:24;24.80;99.90
22071;DHT22;11200;51.488;6.668;2023-07-28T14:34:50;24.80;99.90
22071;DHT22;11200;51.488;6.668;2023-07-28T14:37:15;24.80;99.90
22071;DHT22;11200;51.488;6.668;2023-07-28T14:39:42;24.80;99.90
22071;DHT22;11200;51.488;6.668;2023-07-28T14:42:07;24.80;99.90
22071;DHT22;11200;51.488;6.668;2023-07-28T14:44:33;24.90;99.90
22071;DHT22;11200;51.488;6.668;2023-07-28T14:46:59;24.90;99.90
22071;DHT22;11200;51.488;6.668;2023-07-28T14:49:25;24.90;99.90
22071;DHT22;11200;51.488;6.668;2023-07-28T14:51:54;24.90;99.90
22071;DHT22;11200;51.488;6.668;2023-07-28T14:54:20;24.90;99.90
22071;DHT22;11200;51.488;6.668;2023-07-28T14:56:46;25.00;99.90
22071;DHT22;11200;51.488;6.668;2023-07-28T14:59:11;25.00;99.90
22071;DHT22;11200;51.488;6.668;2023-07-28T15:01:37;25.00;99.90
22071;DHT22;11200;51.488;6.668;2023-07-28T15:04:03;25.00;99.90
22071;DHT22;11200;51.488;6.668;2023-07-28T15:06:30;25.10;99.90
22071;DHT22;11200;51.488;6.668;2023-07-28T15:08:56;25.10;99.90
22071;DHT22;11200;51.488;6.668;2023-07-28T15:11:22;25.10;99.90
22071;DHT22;11200;51.488;6.668;2023-07-28T15:13:47;25.10;99.90
22071;DHT22;11200;51.488;6.668;2023-07-28T15:16:13;25.10;99.90
22071;DHT22;11200;51.488;6.668;2023-07-28T15:18:39;25.00;99.90
22071;DHT22;11200;51.488;6.668;2023-07-28T15:21:04;25.00;99.90
22071;DHT22;11200;51.488;6.668;2023-07-28T15:23:30;25.00;99.90
22071;DHT22;11200;51.488;6.668;2023-07-28T15:25:56;25.00;99.90
22071;DHT22;11200;51.488;6.668;2023-07-28T15:28:23;24.90;99.90
22071;DHT22;11200;51.488;6.668;2023-07-28T15:30:49;24.90;99.90
22071;DHT22;11200;51.488;6.668;2023-07-28T15:33:20;24.90;99.90
22071;DHT22;11200;51.488;6.668;2023-07-28T15:35:47;24.90;99.90
22071;DHT22;11200;51.488;6.668;2023-07-28T15:38:13;24.80;99.90
22071;DHT22;11200;51.488;6.668;2023-07-28T15:40:39;24.80;99.90
22071;DHT22;11200;51.488;6.668;2023-07-28T15:43:05;24.80;99.90
22071;DHT22;11200;51.488;6.668;2023-07-28T15:45:31;24.70;99.90
22071;DHT22;11200;51.488;6.668;2023-07-28T15:47:57;24.70;99.90